sensor_id;sensor_type;location;lat;lon;timestamp;P1;durP1;ratioP1;P2;durP2;ratioP2
74616;SDS011;63123;50.906;4.198;2023-03-24T00:00:42;5.78;;;4.18;;
74616;SDS011;63123;50.906;4.198;2023-03-24T00:03:08;6.15;;;3.40;;
74616;SDS011;63123;50.906;4.198;2023-03-24T00:05:34;5.80;;;3.72;;
74616;SDS011;63123;50.906;4.198;2023-03-24T00:08:00;5.47;;;3.38;;
74616;SDS011;63123;50.906;4.198;2023-03-24T00:10:29;5.32;;;3.63;;
74616;SDS011;63123;50.906;4.198;2023-03-24T00:12:58;5.03;;;3.28;;
74616;SDS011;63123;50.906;4.198;2023-03-24T00:15:24;5.13;;;3.33;;
74616;SDS011;63123;50.906;4.198;2023-03-24T00:17:50;5.20;;;3.50;;
74616;SDS011;63123;50.906;4.198;2023-03-24T00:20:17;4.07;;;3.40;;
74616;SDS011;63123;50.906;4.198;2023-03-24T00:22:46;4.70;;;3.22;;
74616;SDS011;63123;50.906;4.198;2023-03-24T00:25:18;5.80;;;4.00;;
74616;SDS011;63123;50.906;4.198;2023-03-24T00:27:47;3.75;;;3.15;;
74616;SDS011;63123;50.906;4.198;2023-03-24T00:30:13;4.72;;;3.83;;
74616;SDS011;63123;50.906;4.198;2023-03-24T00:32:40;4.25;;;3.22;;
74616;SDS011;63123;50.906;4.198;2023-03-24T00:35:07;4.22;;;3.08;;
74616;SDS011;63123;50.906;4.198;2023-03-24T00:37:35;5.70;;;3.92;;
74616;SDS011;63123;50.906;4.198;2023-03-24T00:40:05;4.72;;;3.45;;
74616;SDS011;63123;50.906;4.198;2023-03-24T00:42:34;4.00;;;2.85;;
74616;SDS011;63123;50.906;4.198;2023-03-24T00:45:01;5.60;;;3.55;;
74616;SDS011;63123;50.906;4.198;2023-03-24T00:47:29;5.60;;;3.70;;
74616;SDS011;63123;50.906;4.198;2023-03-24T00:50:01;5.03;;;3.20;;
74616;SDS011;63123;50.906;4.198;2023-03-24T00:52:29;4.82;;;3.58;;
74616;SDS011;63123;50.906;4.198;2023-03-24T00:54:58;4.55;;;3.20;;
74616;SDS011;63123;50.906;4.198;2023-03-24T00:57:26;4.65;;;3.70;;
74616;SDS011;63123;50.906;4.198;2023-03-24T00:59:54;5.30;;;3.78;;
74616;SDS011;63123;50.906;4.198;2023-03-24T01:02:21;3.97;;;2.92;;
74616;SDS011;63123;50.906;4.198;2023-03-24T01:04:57;4.10;;;3.03;;
74616;SDS011;63123;50.906;4.198;2023-03-24T01:07:26;4.53;;;3.53;;
74616;SDS011;63123;50.906;4.198;2023-03-24T01:09:54;4.18;;;3.20;;
74616;SDS011;63123;50.906;4.198;2023-03-24T01:12:27;3.40;;;2.95;;
74616;SDS011;63123;50.906;4.198;2023-03-24T01:14:58;5.32;;;3.60;;
74616;SDS011;63123;50.906;4.198;2023-03-24T01:17:29;3.88;;;3.42;;
74616;SDS011;63123;50.906;4.198;2023-03-24T01:19:56;4.53;;;3.30;;
74616;SDS011;63123;50.906;4.198;2023-03-24T01:22:26;5.45;;;3.40;;
74616;SDS011;63123;50.906;4.198;2023-03-24T01:24:54;3.75;;;3.30;;
74616;SDS011;63123;50.906;4.198;2023-03-24T01:27:20;4.68;;;3.25;;
74616;SDS011;63123;50.906;4.198;2023-03-24T01:29:45;4.45;;;3.30;;
74616;SDS011;63123;50.906;4.198;2023-03-24T01:32:11;4.00;;;3.35;;
74616;SDS011;63123;50.906;4.198;2023-03-24T01:34:37;4.97;;;2.97;;
74616;SDS011;63123;50.906;4.198;2023-03-24T01:37:02;5.65;;;3.05;;
74616;SDS011;63123;50.906;4.198;2023-03-24T01:39:28;3.78;;;3.33;;
74616;SDS011;63123;50.906;4.198;2023-03-24T01:41:54;3.22;;;2.67;;
74616;SDS011;63123;50.906;4.198;2023-03-24T01:47:18;3.50;;;2.85;;
74616;SDS011;63123;50.906;4.198;2023-03-24T01:49:48;4.32;;;3.25;;
74616;SDS011;63123;50.906;4.198;2023-03-24T01:52:18;2.53;;;2.30;;
74616;SDS011;63123;50.906;4.198;2023-03-24T01:54:49;3.67;;;3.03;;
74616;SDS011;63123;50.906;4.198;2023-03-24T01:57:31;3.88;;;2.78;;
74616;SDS011;63123;50.906;4.198;2023-03-24T02:00:12;3.72;;;3.35;;
74616;SDS011;63123;50.906;4.198;2023-03-24T02:05:07;3.65;;;2.72;;
74616;SDS011;63123;50.906;4.198;2023-03-24T02:07:37;3.67;;;2.90;;
74616;SDS011;63123;50.906;4.198;2023-03-24T02:10:10;4.33;;;2.77;;
74616;SDS011;63123;50.906;4.198;2023-03-24T02:12:38;2.92;;;2.63;;
74616;SDS011;63123;50.906;4.198;2023-03-24T02:15:06;3.22;;;2.75;;
74616;SDS011;63123;50.906;4.198;2023-03-24T02:23:09;2.78;;;2.53;;
74616;SDS011;63123;50.906;4.198;2023-03-24T02:50:27;2.45;;;2.15;;
74616;SDS011;63123;50.906;4.198;2023-03-24T02:52:49;2.53;;;1.95;;
74616;SDS011;63123;50.906;4.198;2023-03-24T02:55:30;2.45;;;2.25;;
74616;SDS011;63123;50.906;4.198;2023-03-24T02:58:02;2.42;;;1.83;;
74616;SDS011;63123;50.906;4.198;2023-03-24T03:00:33;2.65;;;2.10;;
74616;SDS011;63123;50.906;4.198;2023-03-24T03:03:02;2.50;;;2.05;;
74616;SDS011;63123;50.906;4.198;2023-03-24T03:05:36;2.30;;;1.98;;
74616;SDS011;63123;50.906;4.198;2023-03-24T03:10:37;2.35;;;2.10;;
74616;SDS011;63123;50.906;4.198;2023-03-24T03:13:12;2.33;;;2.03;;
74616;SDS011;63123;50.906;4.198;2023-03-24T03:15:53;2.70;;;1.60;;
74616;SDS011;63123;50.906;4.198;2023-03-24T03:18:25;2.40;;;1.60;;
74616;SDS011;63123;50.906;4.198;2023-03-24T03:20:57;2.97;;;1.80;;
74616;SDS011;63123;50.906;4.198;2023-03-24T03:23:29;2.55;;;1.80;;
74616;SDS011;63123;50.906;4.198;2023-03-24T03:26:02;3.03;;;1.80;;
74616;SDS011;63123;50.906;4.198;2023-03-24T03:28:31;2.83;;;2.00;;
74616;SDS011;63123;50.906;4.198;2023-03-24T03:31:00;3.22;;;1.90;;
74616;SDS011;63123;50.906;4.198;2023-03-24T03:33:34;2.88;;;2.15;;
74616;SDS011;63123;50.906;4.198;2023-03-24T03:36:09;3.05;;;2.47;;
74616;SDS011;63123;50.906;4.198;2023-03-24T03:38:44;3.30;;;2.30;;
74616;SDS011;63123;50.906;4.198;2023-03-24T03:41:18;2.55;;;2.10;;
74616;SDS011;63123;50.906;4.198;2023-03-24T03:43:45;3.05;;;2.25;;
74616;SDS011;63123;50.906;4.198;2023-03-24T03:46:13;4.15;;;2.33;;
74616;SDS011;63123;50.906;4.198;2023-03-24T03:48:39;2.50;;;2.22;;
74616;SDS011;63123;50.906;4.198;2023-03-24T03:51:06;3.60;;;2.22;;
74616;SDS011;63123;50.906;4.198;2023-03-24T03:53:42;2.55;;;1.70;;
74616;SDS011;63123;50.906;4.198;2023-03-24T03:56:17;2.80;;;1.85;;
74616;SDS011;63123;50.906;4.198;2023-03-24T03:58:46;2.50;;;1.92;;
74616;SDS011;63123;50.906;4.198;2023-03-24T04:01:13;1.98;;;1.35;;
74616;SDS011;63123;50.906;4.198;2023-03-24T04:08:53;3.57;;;1.77;;
74616;SDS011;63123;50.906;4.198;2023-03-24T04:20:06;3.85;;;2.22;;
74616;SDS011;63123;50.906;4.198;2023-03-24T04:25:58;2.88;;;2.15;;
74616;SDS011;63123;50.906;4.198;2023-03-24T04:28:37;2.90;;;1.90;;
74616;SDS011;63123;50.906;4.198;2023-03-24T04:31:16;3.42;;;1.70;;
74616;SDS011;63123;50.906;4.198;2023-03-24T04:34:06;4.50;;;2.20;;
74616;SDS011;63123;50.906;4.198;2023-03-24T04:36:46;2.85;;;1.80;;
74616;SDS011;63123;50.906;4.198;2023-03-24T04:39:24;2.00;;;1.50;;
74616;SDS011;63123;50.906;4.198;2023-03-24T04:41:55;2.22;;;1.90;;
74616;SDS011;63123;50.906;4.198;2023-03-24T04:44:23;2.40;;;1.85;;
74616;SDS011;63123;50.906;4.198;2023-03-24T04:46:51;2.65;;;1.70;;
74616;SDS011;63123;50.906;4.198;2023-03-24T04:49:20;2.80;;;1.60;;
74616;SDS011;63123;50.906;4.198;2023-03-24T04:51:49;2.78;;;1.70;;
74616;SDS011;63123;50.906;4.198;2023-03-24T04:54:16;3.40;;;1.92;;
74616;SDS011;63123;50.906;4.198;2023-03-24T04:56:43;3.25;;;1.83;;
74616;SDS011;63123;50.906;4.198;2023-03-24T04:59:14;2.40;;;1.60;;
74616;SDS011;63123;50.906;4.198;2023-03-24T05:01:40;2.53;;;1.60;;
74616;SDS011;63123;50.906;4.198;2023-03-24T05:04:14;2.75;;;1.70;;
74616;SDS011;63123;50.906;4.198;2023-03-24T05:06:44;2.97;;;1.80;;
74616;SDS011;63123;50.906;4.198;2023-03-24T05:11:46;3.03;;;1.88;;
74616;SDS011;63123;50.906;4.198;2023-03-24T05:14:12;3.15;;;1.80;;
74616;SDS011;63123;50.906;4.198;2023-03-24T05:16:39;2.55;;;1.60;;
74616;SDS011;63123;50.906;4.198;2023-03-24T05:19:05;3.22;;;2.08;;
74616;SDS011;63123;50.906;4.198;2023-03-24T05:21:31;3.78;;;2.03;;
74616;SDS011;63123;50.906;4.198;2023-03-24T05:23:57;4.20;;;1.92;;
74616;SDS011;63123;50.906;4.198;2023-03-24T05:26:23;2.42;;;1.80;;
74616;SDS011;63123;50.906;4.198;2023-03-24T05:28:50;2.42;;;1.88;;
74616;SDS011;63123;50.906;4.198;2023-03-24T05:31:16;2.83;;;1.85;;
74616;SDS011;63123;50.906;4.198;2023-03-24T05:33:42;3.85;;;2.00;;
74616;SDS011;63123;50.906;4.198;2023-03-24T05:36:08;3.75;;;2.20;;
74616;SDS011;63123;50.906;4.198;2023-03-24T05:38:34;3.08;;;1.90;;
74616;SDS011;63123;50.906;4.198;2023-03-24T05:40:59;2.28;;;1.58;;
74616;SDS011;63123;50.906;4.198;2023-03-24T05:43:25;2.80;;;1.63;;
74616;SDS011;63123;50.906;4.198;2023-03-24T05:45:51;3.30;;;1.73;;
74616;SDS011;63123;50.906;4.198;2023-03-24T05:48:17;1.83;;;1.50;;
74616;SDS011;63123;50.906;4.198;2023-03-24T05:50:43;2.33;;;1.63;;
74616;SDS011;63123;50.906;4.198;2023-03-24T05:53:08;3.25;;;2.45;;
74616;SDS011;63123;50.906;4.198;2023-03-24T05:55:34;2.38;;;1.58;;
74616;SDS011;63123;50.906;4.198;2023-03-24T05:58:00;3.63;;;1.80;;
74616;SDS011;63123;50.906;4.198;2023-03-24T06:00:27;2.55;;;1.92;;
74616;SDS011;63123;50.906;4.198;2023-03-24T06:02:54;3.05;;;1.65;;
74616;SDS011;63123;50.906;4.198;2023-03-24T06:05:20;2.63;;;1.50;;
74616;SDS011;63123;50.906;4.198;2023-03-24T06:07:47;3.60;;;1.77;;
74616;SDS011;63123;50.906;4.198;2023-03-24T06:10:12;2.10;;;1.67;;
74616;SDS011;63123;50.906;4.198;2023-03-24T06:12:39;4.18;;;1.75;;
74616;SDS011;63123;50.906;4.198;2023-03-24T06:15:05;1.67;;;1.30;;
74616;SDS011;63123;50.906;4.198;2023-03-24T06:17:32;2.83;;;1.73;;
74616;SDS011;63123;50.906;4.198;2023-03-24T06:19:58;2.75;;;1.73;;
74616;SDS011;63123;50.906;4.198;2023-03-24T06:22:27;2.35;;;1.45;;
74616;SDS011;63123;50.906;4.198;2023-03-24T06:24:53;2.45;;;1.55;;
74616;SDS011;63123;50.906;4.198;2023-03-24T06:27:23;2.47;;;1.60;;
74616;SDS011;63123;50.906;4.198;2023-03-24T06:29:50;2.25;;;1.70;;
74616;SDS011;63123;50.906;4.198;2023-03-24T06:32:17;2.70;;;1.65;;
74616;SDS011;63123;50.906;4.198;2023-03-24T06:34:44;2.92;;;1.80;;
74616;SDS011;63123;50.906;4.198;2023-03-24T06:37:10;2.10;;;1.33;;
74616;SDS011;63123;50.906;4.198;2023-03-24T06:39:35;3.30;;;1.85;;
74616;SDS011;63123;50.906;4.198;2023-03-24T06:42:01;2.92;;;1.50;;
74616;SDS011;63123;50.906;4.198;2023-03-24T06:44:27;2.78;;;1.63;;
74616;SDS011;63123;50.906;4.198;2023-03-24T06:46:53;4.28;;;1.70;;
74616;SDS011;63123;50.906;4.198;2023-03-24T06:49:19;2.58;;;1.60;;
74616;SDS011;63123;50.906;4.198;2023-03-24T06:51:44;3.45;;;1.55;;
74616;SDS011;63123;50.906;4.198;2023-03-24T06:54:10;2.15;;;1.40;;
74616;SDS011;63123;50.906;4.198;2023-03-24T06:56:36;2.63;;;1.65;;
74616;SDS011;63123;50.906;4.198;2023-03-24T06:59:01;3.20;;;1.83;;
74616;SDS011;63123;50.906;4.198;2023-03-24T07:01:27;2.25;;;1.35;;
74616;SDS011;63123;50.906;4.198;2023-03-24T07:03:53;3.15;;;1.65;;
74616;SDS011;63123;50.906;4.198;2023-03-24T07:06:19;3.10;;;1.48;;
74616;SDS011;63123;50.906;4.198;2023-03-24T07:08:46;3.30;;;1.65;;
74616;SDS011;63123;50.906;4.198;2023-03-24T07:11:13;2.88;;;1.70;;
74616;SDS011;63123;50.906;4.198;2023-03-24T07:13:38;2.13;;;1.60;;
74616;SDS011;63123;50.906;4.198;2023-03-24T07:16:04;2.92;;;1.40;;
74616;SDS011;63123;50.906;4.198;2023-03-24T07:18:30;2.00;;;1.23;;
74616;SDS011;63123;50.906;4.198;2023-03-24T07:20:55;2.30;;;1.52;;
74616;SDS011;63123;50.906;4.198;2023-03-24T07:23:21;2.03;;;1.38;;
74616;SDS011;63123;50.906;4.198;2023-03-24T07:25:46;2.47;;;1.58;;
74616;SDS011;63123;50.906;4.198;2023-03-24T07:28:12;2.85;;;1.38;;
74616;SDS011;63123;50.906;4.198;2023-03-24T07:30:38;2.65;;;1.30;;
74616;SDS011;63123;50.906;4.198;2023-03-24T07:33:03;1.80;;;1.30;;
74616;SDS011;63123;50.906;4.198;2023-03-24T07:35:31;2.65;;;1.60;;
74616;SDS011;63123;50.906;4.198;2023-03-24T07:37:57;3.25;;;1.85;;
74616;SDS011;63123;50.906;4.198;2023-03-24T07:40:24;3.45;;;1.98;;
74616;SDS011;63123;50.906;4.198;2023-03-24T07:43:01;3.92;;;2.00;;
74616;SDS011;63123;50.906;4.198;2023-03-24T07:45:29;3.83;;;1.58;;
74616;SDS011;63123;50.906;4.198;2023-03-24T07:47:55;3.10;;;2.42;;
74616;SDS011;63123;50.906;4.198;2023-03-24T07:50:25;2.88;;;1.50;;
74616;SDS011;63123;50.906;4.198;2023-03-24T07:52:52;2.78;;;1.40;;
74616;SDS011;63123;50.906;4.198;2023-03-24T07:55:18;2.55;;;1.38;;
74616;SDS011;63123;50.906;4.198;2023-03-24T07:57:47;2.72;;;1.42;;
74616;SDS011;63123;50.906;4.198;2023-03-24T08:00:14;2.47;;;1.63;;
74616;SDS011;63123;50.906;4.198;2023-03-24T08:02:45;2.85;;;1.75;;
74616;SDS011;63123;50.906;4.198;2023-03-24T08:05:12;2.20;;;1.33;;
74616;SDS011;63123;50.906;4.198;2023-03-24T08:07:42;1.98;;;1.48;;
74616;SDS011;63123;50.906;4.198;2023-03-24T08:10:09;2.92;;;1.58;;
74616;SDS011;63123;50.906;4.198;2023-03-24T08:12:37;2.80;;;1.52;;
74616;SDS011;63123;50.906;4.198;2023-03-24T08:15:04;2.55;;;1.63;;
74616;SDS011;63123;50.906;4.198;2023-03-24T08:17:31;3.63;;;1.70;;
74616;SDS011;63123;50.906;4.198;2023-03-24T08:19:57;2.40;;;1.60;;
74616;SDS011;63123;50.906;4.198;2023-03-24T08:22:23;3.10;;;1.58;;
74616;SDS011;63123;50.906;4.198;2023-03-24T08:24:48;3.78;;;2.00;;
74616;SDS011;63123;50.906;4.198;2023-03-24T08:27:14;2.92;;;1.60;;
74616;SDS011;63123;50.906;4.198;2023-03-24T08:29:41;2.03;;;1.20;;
74616;SDS011;63123;50.906;4.198;2023-03-24T08:32:07;3.25;;;1.65;;
74616;SDS011;63123;50.906;4.198;2023-03-24T08:34:32;3.33;;;1.95;;
74616;SDS011;63123;50.906;4.198;2023-03-24T08:36:58;3.35;;;1.52;;
74616;SDS011;63123;50.906;4.198;2023-03-24T08:39:23;3.35;;;1.77;;
74616;SDS011;63123;50.906;4.198;2023-03-24T08:41:49;2.65;;;1.63;;
74616;SDS011;63123;50.906;4.198;2023-03-24T08:44:15;2.97;;;1.30;;
74616;SDS011;63123;50.906;4.198;2023-03-24T08:46:41;2.20;;;1.55;;
74616;SDS011;63123;50.906;4.198;2023-03-24T08:49:06;3.25;;;2.40;;
74616;SDS011;63123;50.906;4.198;2023-03-24T08:51:33;2.55;;;1.58;;
74616;SDS011;63123;50.906;4.198;2023-03-24T08:53:59;2.95;;;1.60;;
74616;SDS011;63123;50.906;4.198;2023-03-24T08:56:25;3.55;;;1.60;;
74616;SDS011;63123;50.906;4.198;2023-03-24T08:58:51;3.42;;;1.60;;
74616;SDS011;63123;50.906;4.198;2023-03-24T09:01:17;2.97;;;1.60;;
74616;SDS011;63123;50.906;4.198;2023-03-24T09:03:46;3.25;;;1.35;;
74616;SDS011;63123;50.906;4.198;2023-03-24T09:06:12;2.83;;;1.50;;
74616;SDS011;63123;50.906;4.198;2023-03-24T09:08:38;2.25;;;1.42;;
74616;SDS011;63123;50.906;4.198;2023-03-24T09:11:04;2.83;;;1.50;;
74616;SDS011;63123;50.906;4.198;2023-03-24T09:13:30;2.65;;;1.40;;
74616;SDS011;63123;50.906;4.198;2023-03-24T09:15:58;1.90;;;1.27;;
74616;SDS011;63123;50.906;4.198;2023-03-24T09:18:27;2.60;;;1.88;;
74616;SDS011;63123;50.906;4.198;2023-03-24T09:20:53;2.33;;;1.30;;
74616;SDS011;63123;50.906;4.198;2023-03-24T09:23:19;2.00;;;1.40;;
74616;SDS011;63123;50.906;4.198;2023-03-24T09:25:47;2.05;;;1.27;;
74616;SDS011;63123;50.906;4.198;2023-03-24T09:28:14;2.90;;;1.42;;
74616;SDS011;63123;50.906;4.198;2023-03-24T09:30:40;2.78;;;1.85;;
74616;SDS011;63123;50.906;4.198;2023-03-24T09:33:06;3.65;;;2.47;;
74616;SDS011;63123;50.906;4.198;2023-03-24T09:35:32;4.57;;;1.88;;
74616;SDS011;63123;50.906;4.198;2023-03-24T09:37:58;3.83;;;2.10;;
74616;SDS011;63123;50.906;4.198;2023-03-24T09:40:25;2.17;;;1.58;;
74616;SDS011;63123;50.906;4.198;2023-03-24T09:43:02;2.70;;;1.83;;
74616;SDS011;63123;50.906;4.198;2023-03-24T09:45:32;2.45;;;1.88;;
74616;SDS011;63123;50.906;4.198;2023-03-24T09:48:12;2.90;;;1.92;;
74616;SDS011;63123;50.906;4.198;2023-03-24T09:50:47;2.92;;;1.80;;
74616;SDS011;63123;50.906;4.198;2023-03-24T09:55:47;3.20;;;1.60;;
74616;SDS011;63123;50.906;4.198;2023-03-24T09:58:13;1.95;;;1.48;;
74616;SDS011;63123;50.906;4.198;2023-03-24T10:00:40;3.45;;;1.70;;
74616;SDS011;63123;50.906;4.198;2023-03-24T10:03:19;2.20;;;1.52;;
74616;SDS011;63123;50.906;4.198;2023-03-24T10:06:07;1.65;;;1.30;;
74616;SDS011;63123;50.906;4.198;2023-03-24T10:08:53;2.55;;;1.13;;
74616;SDS011;63123;50.906;4.198;2023-03-24T10:28:38;3.58;;;1.50;;
74616;SDS011;63123;50.906;4.198;2023-03-24T10:31:27;1.70;;;1.40;;
74616;SDS011;63123;50.906;4.198;2023-03-24T10:33:55;2.30;;;1.25;;
74616;SDS011;63123;50.906;4.198;2023-03-24T10:36:21;5.10;;;1.60;;
74616;SDS011;63123;50.906;4.198;2023-03-24T10:38:47;3.40;;;1.48;;
74616;SDS011;63123;50.906;4.198;2023-03-24T10:41:20;2.38;;;1.50;;
74616;SDS011;63123;50.906;4.198;2023-03-24T10:43:47;2.40;;;1.60;;
74616;SDS011;63123;50.906;4.198;2023-03-24T10:46:16;2.35;;;1.50;;
74616;SDS011;63123;50.906;4.198;2023-03-24T10:48:46;2.35;;;1.52;;
74616;SDS011;63123;50.906;4.198;2023-03-24T10:51:32;2.78;;;1.42;;
74616;SDS011;63123;50.906;4.198;2023-03-24T10:54:11;3.08;;;1.55;;
74616;SDS011;63123;50.906;4.198;2023-03-24T10:56:41;1.73;;;1.60;;
74616;SDS011;63123;50.906;4.198;2023-03-24T10:59:23;2.78;;;1.60;;
74616;SDS011;63123;50.906;4.198;2023-03-24T11:01:59;3.30;;;1.52;;
74616;SDS011;63123;50.906;4.198;2023-03-24T11:04:39;1.98;;;1.50;;
74616;SDS011;63123;50.906;4.198;2023-03-24T11:09:43;2.67;;;1.33;;
74616;SDS011;63123;50.906;4.198;2023-03-24T11:17:55;2.53;;;1.75;;
74616;SDS011;63123;50.906;4.198;2023-03-24T11:20:34;2.58;;;1.95;;
74616;SDS011;63123;50.906;4.198;2023-03-24T11:25:35;2.70;;;1.30;;
74616;SDS011;63123;50.906;4.198;2023-03-24T11:28:05;1.95;;;1.13;;
74616;SDS011;63123;50.906;4.198;2023-03-24T11:30:34;1.60;;;1.00;;
74616;SDS011;63123;50.906;4.198;2023-03-24T11:33:10;1.40;;;1.10;;
74616;SDS011;63123;50.906;4.198;2023-03-24T11:35:46;1.48;;;0.98;;
74616;SDS011;63123;50.906;4.198;2023-03-24T11:38:16;1.95;;;1.08;;
74616;SDS011;63123;50.906;4.198;2023-03-24T11:40:51;1.90;;;1.27;;
74616;SDS011;63123;50.906;4.198;2023-03-24T11:43:22;1.50;;;1.10;;
74616;SDS011;63123;50.906;4.198;2023-03-24T11:45:57;2.70;;;1.60;;
74616;SDS011;63123;50.906;4.198;2023-03-24T11:51:04;3.33;;;1.30;;
74616;SDS011;63123;50.906;4.198;2023-03-24T11:53:37;2.25;;;1.50;;
74616;SDS011;63123;50.906;4.198;2023-03-24T11:56:17;1.95;;;1.52;;
74616;SDS011;63123;50.906;4.198;2023-03-24T11:59:06;3.22;;;1.40;;
74616;SDS011;63123;50.906;4.198;2023-03-24T12:14:49;2.28;;;1.85;;
74616;SDS011;63123;50.906;4.198;2023-03-24T12:17:31;2.15;;;1.52;;
74616;SDS011;63123;50.906;4.198;2023-03-24T12:22:49;2.60;;;1.70;;
74616;SDS011;63123;50.906;4.198;2023-03-24T12:25:38;3.15;;;1.65;;
74616;SDS011;63123;50.906;4.198;2023-03-24T12:33:29;2.97;;;1.58;;
74616;SDS011;63123;50.906;4.198;2023-03-24T12:39:51;2.33;;;1.30;;
74616;SDS011;63123;50.906;4.198;2023-03-24T12:42:02;1.80;;;1.30;;
74616;SDS011;63123;50.906;4.198;2023-03-24T12:56:13;3.50;;;2.40;;
74616;SDS011;63123;50.906;4.198;2023-03-24T13:01:15;3.05;;;2.03;;
74616;SDS011;63123;50.906;4.198;2023-03-24T13:06:44;2.40;;;1.00;;
74616;SDS011;63123;50.906;4.198;2023-03-24T13:09:38;2.03;;;0.90;;
74616;SDS011;63123;50.906;4.198;2023-03-24T13:12:23;2.88;;;1.25;;
74616;SDS011;63123;50.906;4.198;2023-03-24T13:20:02;2.47;;;1.60;;
74616;SDS011;63123;50.906;4.198;2023-03-24T13:22:31;2.22;;;1.15;;
74616;SDS011;63123;50.906;4.198;2023-03-24T13:25:00;1.30;;;1.10;;
74616;SDS011;63123;50.906;4.198;2023-03-24T13:27:31;1.38;;;1.10;;
74616;SDS011;63123;50.906;4.198;2023-03-24T13:30:03;2.15;;;1.10;;
74616;SDS011;63123;50.906;4.198;2023-03-24T13:35:20;2.60;;;1.20;;
74616;SDS011;63123;50.906;4.198;2023-03-24T13:38:16;1.80;;;1.30;;
74616;SDS011;63123;50.906;4.198;2023-03-24T13:41:04;1.45;;;1.10;;
74616;SDS011;63123;50.906;4.198;2023-03-24T13:43:31;2.03;;;1.33;;
74616;SDS011;63123;50.906;4.198;2023-03-24T13:46:01;1.98;;;1.23;;
74616;SDS011;63123;50.906;4.198;2023-03-24T13:48:40;1.52;;;1.10;;
74616;SDS011;63123;50.906;4.198;2023-03-24T13:53:49;2.47;;;1.10;;
74616;SDS011;63123;50.906;4.198;2023-03-24T13:56:24;1.70;;;1.05;;
74616;SDS011;63123;50.906;4.198;2023-03-24T14:01:42;2.28;;;1.08;;
74616;SDS011;63123;50.906;4.198;2023-03-24T14:09:27;3.03;;;1.48;;
74616;SDS011;63123;50.906;4.198;2023-03-24T14:14:21;1.20;;;0.82;;
74616;SDS011;63123;50.906;4.198;2023-03-24T14:17:01;2.60;;;1.02;;
74616;SDS011;63123;50.906;4.198;2023-03-24T14:19:30;1.77;;;1.30;;
74616;SDS011;63123;50.906;4.198;2023-03-24T14:24:40;1.38;;;1.25;;
74616;SDS011;63123;50.906;4.198;2023-03-24T14:28:16;1.67;;;1.13;;
74616;SDS011;63123;50.906;4.198;2023-03-24T14:30:03;2.38;;;1.48;;
74616;SDS011;63123;50.906;4.198;2023-03-24T14:32:41;1.52;;;1.10;;
74616;SDS011;63123;50.906;4.198;2023-03-24T14:38:20;2.50;;;1.08;;
74616;SDS011;63123;50.906;4.198;2023-03-24T14:40:48;1.92;;;1.42;;
74616;SDS011;63123;50.906;4.198;2023-03-24T14:45:53;2.47;;;0.90;;
74616;SDS011;63123;50.906;4.198;2023-03-24T14:48:41;1.60;;;1.00;;
74616;SDS011;63123;50.906;4.198;2023-03-24T14:51:24;2.55;;;1.23;;
74616;SDS011;63123;50.906;4.198;2023-03-24T14:53:56;1.60;;;1.15;;
74616;SDS011;63123;50.906;4.198;2023-03-24T14:56:22;1.98;;;1.10;;
74616;SDS011;63123;50.906;4.198;2023-03-24T14:58:51;1.67;;;1.20;;
74616;SDS011;63123;50.906;4.198;2023-03-24T15:01:20;1.77;;;1.42;;
74616;SDS011;63123;50.906;4.198;2023-03-24T15:03:55;2.10;;;1.10;;
74616;SDS011;63123;50.906;4.198;2023-03-24T15:06:31;1.83;;;1.00;;
74616;SDS011;63123;50.906;4.198;2023-03-24T15:08:58;2.00;;;1.02;;
74616;SDS011;63123;50.906;4.198;2023-03-24T15:11:35;1.70;;;1.30;;
74616;SDS011;63123;50.906;4.198;2023-03-24T15:14:11;2.72;;;1.10;;
74616;SDS011;63123;50.906;4.198;2023-03-24T15:16:54;1.67;;;1.02;;
74616;SDS011;63123;50.906;4.198;2023-03-24T15:19:30;2.00;;;1.10;;
74616;SDS011;63123;50.906;4.198;2023-03-24T15:21:59;1.67;;;0.80;;
74616;SDS011;63123;50.906;4.198;2023-03-24T15:24:28;2.08;;;0.90;;
74616;SDS011;63123;50.906;4.198;2023-03-24T15:29:37;2.05;;;1.23;;
74616;SDS011;63123;50.906;4.198;2023-03-24T15:32:05;1.23;;;0.80;;
74616;SDS011;63123;50.906;4.198;2023-03-24T15:34:41;1.33;;;1.00;;
74616;SDS011;63123;50.906;4.198;2023-03-24T15:39:50;2.00;;;0.95;;
74616;SDS011;63123;50.906;4.198;2023-03-24T15:42:19;1.75;;;1.00;;
74616;SDS011;63123;50.906;4.198;2023-03-24T15:44:46;2.63;;;1.10;;
74616;SDS011;63123;50.906;4.198;2023-03-24T15:47:21;1.90;;;0.98;;
74616;SDS011;63123;50.906;4.198;2023-03-24T15:49:50;3.03;;;0.95;;
74616;SDS011;63123;50.906;4.198;2023-03-24T15:52:22;2.30;;;1.13;;
74616;SDS011;63123;50.906;4.198;2023-03-24T15:54:58;1.80;;;0.98;;
74616;SDS011;63123;50.906;4.198;2023-03-24T15:57:47;2.28;;;1.23;;
74616;SDS011;63123;50.906;4.198;2023-03-24T16:00:14;1.33;;;0.82;;
74616;SDS011;63123;50.906;4.198;2023-03-24T16:02:47;1.50;;;1.08;;
74616;SDS011;63123;50.906;4.198;2023-03-24T16:05:24;2.03;;;1.00;;
74616;SDS011;63123;50.906;4.198;2023-03-24T16:10:41;1.60;;;1.00;;
74616;SDS011;63123;50.906;4.198;2023-03-24T16:13:14;1.17;;;0.90;;
74616;SDS011;63123;50.906;4.198;2023-03-24T16:16:06;1.58;;;0.80;;
74616;SDS011;63123;50.906;4.198;2023-03-24T16:18:43;2.08;;;1.15;;
74616;SDS011;63123;50.906;4.198;2023-03-24T16:21:11;1.90;;;0.93;;
74616;SDS011;63123;50.906;4.198;2023-03-24T16:23:39;1.63;;;0.90;;
74616;SDS011;63123;50.906;4.198;2023-03-24T16:26:11;2.17;;;1.00;;
74616;SDS011;63123;50.906;4.198;2023-03-24T16:28:40;2.95;;;0.90;;
74616;SDS011;63123;50.906;4.198;2023-03-24T16:31:06;1.58;;;1.00;;
74616;SDS011;63123;50.906;4.198;2023-03-24T16:33:41;1.77;;;0.80;;
74616;SDS011;63123;50.906;4.198;2023-03-24T16:36:08;2.00;;;0.93;;
74616;SDS011;63123;50.906;4.198;2023-03-24T16:38:35;2.08;;;0.90;;
74616;SDS011;63123;50.906;4.198;2023-03-24T16:41:01;1.63;;;1.05;;
74616;SDS011;63123;50.906;4.198;2023-03-24T16:43:27;1.65;;;0.90;;
74616;SDS011;63123;50.906;4.198;2023-03-24T16:45:53;2.30;;;1.17;;
74616;SDS011;63123;50.906;4.198;2023-03-24T16:48:19;2.00;;;0.90;;
74616;SDS011;63123;50.906;4.198;2023-03-24T16:50:46;2.05;;;0.88;;
74616;SDS011;63123;50.906;4.198;2023-03-24T16:53:15;1.35;;;0.90;;
74616;SDS011;63123;50.906;4.198;2023-03-24T16:55:45;1.88;;;1.00;;
74616;SDS011;63123;50.906;4.198;2023-03-24T16:58:12;1.63;;;0.88;;
74616;SDS011;63123;50.906;4.198;2023-03-24T17:00:40;1.55;;;0.85;;
74616;SDS011;63123;50.906;4.198;2023-03-24T17:03:07;2.67;;;0.80;;
74616;SDS011;63123;50.906;4.198;2023-03-24T17:05:49;1.58;;;0.93;;
74616;SDS011;63123;50.906;4.198;2023-03-24T17:08:15;1.42;;;1.02;;
74616;SDS011;63123;50.906;4.198;2023-03-24T17:10:43;1.13;;;0.95;;
74616;SDS011;63123;50.906;4.198;2023-03-24T17:13:17;2.13;;;0.88;;
74616;SDS011;63123;50.906;4.198;2023-03-24T17:15:47;1.55;;;1.15;;
74616;SDS011;63123;50.906;4.198;2023-03-24T17:18:14;1.35;;;0.95;;
74616;SDS011;63123;50.906;4.198;2023-03-24T17:20:40;1.73;;;1.00;;
74616;SDS011;63123;50.906;4.198;2023-03-24T17:23:06;1.98;;;0.77;;
74616;SDS011;63123;50.906;4.198;2023-03-24T17:25:33;3.80;;;0.90;;
74616;SDS011;63123;50.906;4.198;2023-03-24T17:27:59;2.05;;;0.82;;
74616;SDS011;63123;50.906;4.198;2023-03-24T17:30:26;1.67;;;0.88;;
74616;SDS011;63123;50.906;4.198;2023-03-24T17:32:53;1.45;;;0.70;;
74616;SDS011;63123;50.906;4.198;2023-03-24T17:35:21;1.60;;;0.80;;
74616;SDS011;63123;50.906;4.198;2023-03-24T17:37:48;2.10;;;0.93;;
74616;SDS011;63123;50.906;4.198;2023-03-24T17:40:15;1.13;;;0.82;;
74616;SDS011;63123;50.906;4.198;2023-03-24T17:42:42;1.25;;;0.80;;
74616;SDS011;63123;50.906;4.198;2023-03-24T17:45:14;3.45;;;1.00;;
74616;SDS011;63123;50.906;4.198;2023-03-24T17:47:40;2.15;;;0.60;;
74616;SDS011;63123;50.906;4.198;2023-03-24T17:50:07;1.05;;;0.73;;
74616;SDS011;63123;50.906;4.198;2023-03-24T17:52:44;1.38;;;0.70;;
74616;SDS011;63123;50.906;4.198;2023-03-24T17:55:11;1.40;;;0.80;;